Delta Virtual Airport Information Service

Dammam King Fahd International Airport

ICAO: OEDF Country: Saudi Arabia
Latitude: 26.4712 Longitude: 49.7979
Latest Arrival : DAC2142 (KMIA-OEDF) Latest Departure : SVA986 (1A) (OEDF-VHHH)


WX CaptureLIVE
Data provided by noaa.gov | Fetched at 06:38:17

METAR : OEDF 271100Z 35016KT 9999 FEW030 SCT040 21/01 Q1018 NOSIG

TAF : OEDF 271100Z 35016KT 9999 FEW030 SCT040 21/01 Q1018 NOSIG


Runway Data for OEDF
Data provided by openaviationdata.com

Runway ID Mag Var Hdg Length Elevation Surface ILS Freq ILS Id ILS Slope
16L 2 162° 13160 ft 72 ft Asphalt 111.7 IMBF 3
16R 2 162° 13108 ft 72 ft Asphalt 108.1 IWSR 3
34L 2 342° 13108 ft 72 ft Asphalt 108.9 IWMR 3
34R 2 342° 13160 ft 72 ft Asphalt 110.7 IABF 3

Dammam King Fahd International Airport, Saudi Arabia
Use only for reference purposes



Not for navigational purposes.